Raven — WUT9940 — position and weather

sailwx.info

Track history (hours):
 
Tides and Currents Weather Stations Pressure Air Temp Water Temp Dewpoint Dewpoint Depression Visibility Wind Speed Wind Dir Waves Ship Positions

Raven

Owner: RAVEN ENTERPRISES, NEWPORT, OR. More information available from US FCC via Universal Licensing System and Coast Guard Vessel Documentation Center.

Last reported at 2018-Jul-21 04:40 UTC. Time now 2018-Jul-21 19:27 UTC.
Position N 47°02' W 124°37'.

MMSI: 367773988.

Date/timePositionNaut miles runAvg speedWind from/ knotsBaromVisibWave heightAir tempDewpointWater temp
2018-Jul-21 04:40N 47°02' W 124°37'2 8.0
2018-Jul-21 04:27N 47°01' W 124°36'4 8.4
2018-Jul-21 04:00N 46°57' W 124°34'4 8.1
2018-Jul-21 03:30N 46°54' W 124°32'4 8.4
2018-Jul-21 03:00N 46°50' W 124°29'4 8.4
2018-Jul-21 02:30N 46°46' W 124°27'4 8.4
2018-Jul-21 02:01N 46°42' W 124°24'6 8.7
2018-Jul-21 01:21N 46°37' W 124°21'3 7.6
2018-Jul-21 01:01N 46°35' W 124°19'6 8.2
2018-Jul-21 00:13N 46°29' W 124°15'2 8.5
2018-Jul-21 00:01N 46°27' W 124°14'4 8.6
2018-Jul-20 23:29N 46°23' W 124°11'4 8.7
2018-Jul-20 23:01N 46°19' W 124°09'4 8.6
2018-Jul-20 22:30N 46°15' W 124°06'5 9.2
2018-Jul-20 22:01N 46°14' W 123°59'8 9.9
2018-Jul-20 21:14N 46°12' W 123°49'310.9
2018-Jul-20 21:00N 46°13' W 123°45'1 1.8
2018-Jul-20 20:30N 46°12' W 123°46'0 0.0
2018-Jul-20 20:00N 46°12' W 123°46'0 0.0
2018-Jul-20 19:17N 46°12' W 123°46'0 0.0
2018-Jul-20 19:01N 46°12' W 123°46'0 0.0
2018-Jul-20 18:30N 46°12' W 123°46'0 0.0
2018-Jul-20 18:00N 46°12' W 123°46'0 0.0
2018-Jul-20 17:31N 46°12' W 123°46'0 0.0
2018-Jul-20 17:00N 46°12' W 123°46'0 0.0
2018-Jul-20 16:22N 46°12' W 123°46'0 0.0
2018-Jul-20 16:00N 46°12' W 123°46'0 0.0
2018-Jul-20 15:31N 46°12' W 123°46'2 3.7
2018-Jul-20 14:55N 46°12' W 123°49'6 9.0
2018-Jul-20 14:17N 46°13' W 123°57'310.0
2018-Jul-20 14:00N 46°15' W 123°60'5 9.6
2018-Jul-20 13:30N 46°16' W 124°06'5 9.7
2018-Jul-20 13:00N 46°20' W 124°10'5 9.6
2018-Jul-20 12:30N 46°25' W 124°12'5 9.8
2018-Jul-20 12:00N 46°29' W 124°15'5 9.7
2018-Jul-20 11:30N 46°33' W 124°18'5 9.6
2018-Jul-20 11:01N 46°38' W 124°21'5 9.7
2018-Jul-20 10:30N 46°42' W 124°23'5 9.6
2018-Jul-20 10:00N 46°47' W 124°26'5 9.6
2018-Jul-20 09:31N 46°51' W 124°29'5 9.7
2018-Jul-20 08:58N 46°56' W 124°32'5 9.5
2018-Jul-20 08:29N 47°00' W 124°35'5 9.6
2018-Jul-20 07:55N 47°05' W 124°38'410.0
2018-Jul-20 07:29N 47°09' W 124°40'5 0.2
2018-Jul-19 10:23N 47°14' W 124°42'4 7.1
2018-Jul-19 09:52N 47°11' W 124°40'3 7.3
2018-Jul-19 09:29N 47°08' W 124°38'4 7.2
2018-Jul-19 08:57N 47°04' W 124°36'3 7.3
2018-Jul-19 08:30N 47°01' W 124°35'4 7.2
2018-Jul-19 07:59N 46°58' W 124°33'3 7.2
2018-Jul-19 07:30N 46°55' W 124°31'4 7.4
2018-Jul-19 06:59N 46°51' W 124°28'4 7.9
2018-Jul-19 06:31N 46°48' W 124°26'4 7.9
2018-Jul-19 06:00N 46°44' W 124°24'4 8.0
2018-Jul-19 05:30N 46°40' W 124°22'4 7.4
2018-Jul-19 05:00N 46°37' W 124°20'4 7.8
2018-Jul-19 04:29N 46°33' W 124°17'4 7.6
2018-Jul-19 04:01N 46°30' W 124°15'4 8.3
2018-Jul-19 03:31N 46°26' W 124°13'4 8.2
2018-Jul-19 03:00N 46°22' W 124°10'4 7.9
2018-Jul-19 02:30N 46°19' W 124°08'4 7.7
2018-Jul-19 02:00N 46°15' W 124°05'4 8.3
2018-Jul-19 01:30N 46°14' W 123°59'4 7.9
2018-Jul-19 01:00N 46°12' W 123°55'4 7.8
2018-Jul-19 00:30N 46°12' W 123°50'3 5.7
2018-Jul-19 00:00N 46°12' W 123°45'0 0.4
2018-Jul-18 23:30N 46°12' W 123°46'0 0.0
2018-Jul-18 23:01N 46°12' W 123°46'0 0.0
2018-Jul-18 22:20N 46°12' W 123°46'0 0.0
2018-Jul-18 22:01N 46°12' W 123°46'0 0.0
2018-Jul-18 21:31N 46°12' W 123°46'0 0.0
2018-Jul-18 21:00N 46°12' W 123°46'0 0.0
2018-Jul-18 20:31N 46°12' W 123°46'0 0.0
2018-Jul-18 20:01N 46°12' W 123°46'0 0.0
2018-Jul-18 19:30N 46°12' W 123°46'0 0.0
2018-Jul-18 19:00N 46°12' W 123°46'0 0.0
2018-Jul-18 18:21N 46°12' W 123°46'0 0.0
2018-Jul-18 18:01N 46°12' W 123°46'0 0.0
2018-Jul-18 17:30N 46°12' W 123°46'0 0.0
2018-Jul-18 17:00N 46°12' W 123°46'0 0.0
2018-Jul-18 16:31N 46°12' W 123°46'0 0.0
2018-Jul-18 16:00N 46°12' W 123°46'0 0.0
2018-Jul-18 15:27N 46°12' W 123°46'0 0.0
2018-Jul-18 15:00N 46°12' W 123°46'0 0.0
2018-Jul-18 14:31N 46°12' W 123°46'0 0.0
2018-Jul-18 13:31N 46°12' W 123°46'0 0.0
2018-Jul-18 13:00N 46°12' W 123°46'0 0.0
2018-Jul-18 12:16N 46°12' W 123°46'0 0.0
2018-Jul-18 12:00N 46°12' W 123°46'0 0.0
2018-Jul-18 11:30N 46°12' W 123°46'0 0.0
2018-Jul-18 10:31N 46°12' W 123°46'0 0.0
2018-Jul-18 10:01N 46°12' W 123°46'0 0.0
2018-Jul-18 09:30N 46°12' W 123°46'0 0.0
2018-Jul-18 09:00N 46°12' W 123°46'0 0.0
2018-Jul-18 08:31N 46°12' W 123°46'0 0.0
2018-Jul-18 08:01N 46°12' W 123°46'0 0.0
2018-Jul-18 07:30N 46°12' W 123°46'0 0.0
2018-Jul-18 06:59N 46°12' W 123°46'0 0.0
2018-Jul-18 06:30N 46°12' W 123°46'0 0.0
2018-Jul-18 06:00N 46°12' W 123°46'0 0.0
2018-Jul-18 05:31N 46°12' W 123°46'0 0.0
2018-Jul-18 04:48N 46°12' W 123°46'0 0.0
2018-Jul-18 04:30N 46°12' W 123°46'0 0.0
2018-Jul-18 03:54N 46°12' W 123°46'0 0.0
2018-Jul-18 03:30N 46°12' W 123°46'0 0.0
2018-Jul-18 03:00N 46°12' W 123°46'0 0.0
2018-Jul-18 02:30N 46°12' W 123°46'0 0.0
2018-Jul-18 02:01N 46°12' W 123°46'0 0.0
2018-Jul-18 01:30N 46°12' W 123°46'0 0.0
2018-Jul-18 00:40N 46°12' W 123°46'0 0.0
2018-Jul-18 00:30N 46°12' W 123°46'0 0.0
2018-Jul-18 00:00N 46°12' W 123°46'0 0.0
2018-Jul-17 23:30N 46°12' W 123°46'0 0.0
2018-Jul-17 23:00N 46°12' W 123°46'0 0.0
2018-Jul-17 22:30N 46°12' W 123°46'0 0.0
2018-Jul-17 22:00N 46°12' W 123°46'0 0.0
2018-Jul-17 21:30N 46°12' W 123°46'0 0.0
2018-Jul-17 21:01N 46°12' W 123°46'0 0.1
2018-Jul-17 20:30N 46°12' W 123°45'3 5.3
2018-Jul-17 20:01N 46°12' W 123°49'1 1.4
2018-Jul-17 19:30N 46°12' W 123°50'0 0.0
2018-Jul-17 19:01N 46°12' W 123°50'3 5.3
2018-Jul-17 18:30N 46°12' W 123°54'3 5.4
2018-Jul-17 18:00N 46°13' W 123°57'2 3.9
2018-Jul-17 17:31N 46°14' W 123°59'2 4.4
2018-Jul-17 17:00N 46°16' W 124°02'3 3.6
2018-Jul-17 16:16N 46°15' W 124°06'1 3.1
2018-Jul-17 16:01N 46°16' W 124°07'2 4.3
2018-Jul-17 15:31N 46°18' W 124°08'2 4.6
2018-Jul-17 15:01N 46°20' W 124°09'2 4.4
2018-Jul-17 14:30N 46°22' W 124°11'2 4.4
2018-Jul-17 14:01N 46°24' W 124°12'2 4.2
2018-Jul-17 13:31N 46°26' W 124°14'2 4.5
2018-Jul-17 13:00N 46°28' W 124°15'2 5.0
2018-Jul-17 12:30N 46°30' W 124°17'3 5.2
2018-Jul-17 11:50N 46°33' W 124°19'2 5.1
2018-Jul-17 11:24N 46°35' W 124°20'2 5.2
2018-Jul-17 11:00N 46°37' W 124°21'4 5.4
2018-Jul-17 10:16N 46°41' W 124°24'1 5.1
2018-Jul-17 10:01N 46°42' W 124°25'3 5.1
2018-Jul-17 09:31N 46°44' W 124°26'2 4.9
2018-Jul-17 09:00N 46°46' W 124°28'2 4.8
2018-Jul-17 08:31N 46°48' W 124°29'2 5.0
2018-Jul-17 08:01N 46°51' W 124°31'2 4.8
2018-Jul-17 07:30N 46°53' W 124°32'2 4.8
2018-Jul-17 07:00N 46°55' W 124°34'2 4.8
2018-Jul-17 06:30N 46°57' W 124°35'2 4.6
2018-Jul-17 06:00N 46°59' W 124°37'2 4.4
2018-Jul-17 05:27N 47°02' W 124°38'2 4.6
2018-Jul-17 05:00N 47°03' W 124°40'2 4.8
2018-Jul-17 04:30N 47°05' W 124°41'3 5.1
2018-Jul-17 03:59N 47°08' W 124°43'3 5.0
2018-Jul-17 03:20N 47°11' W 124°45'22 4.0
2018-Jul-16 21:53N 47°31' W 124°58'2 1.7
2018-Jul-16 20:30N 47°29' W 124°57'3 0.9
2018-Jul-16 17:13N 47°28' W 124°52'1 3.5
2018-Jul-16 16:56N 47°28' W 124°51'2 4.0
2018-Jul-16 16:31N 47°26' W 124°50'3 5.7
2018-Jul-16 16:01N 47°28' W 124°53'1 1.4
2018-Jul-16 15:30N 47°28' W 124°52'4 8.5
2018-Jul-16 15:00N 47°24' W 124°49'4 7.6
2018-Jul-16 14:31N 47°21' W 124°47'5 8.8
2018-Jul-16 13:54N 47°16' W 124°44'5 9.4
2018-Jul-16 13:25N 47°12' W 124°41'4 9.4
2018-Jul-16 13:00N 47°08' W 124°39'5 9.3
2018-Jul-16 12:30N 47°04' W 124°37'5 9.3
2018-Jul-16 12:00N 46°60' W 124°34'5 9.3
2018-Jul-16 11:30N 46°55' W 124°31'5 9.1
2018-Jul-16 11:00N 46°51' W 124°28'5 9.2
2018-Jul-16 10:31N 46°47' W 124°26'5 9.3
2018-Jul-16 10:01N 46°43' W 124°23'5 9.1
2018-Jul-16 09:30N 46°38' W 124°21'5 9.1
2018-Jul-16 09:01N 46°34' W 124°18'5 9.3
2018-Jul-16 08:30N 46°30' W 124°15'5 9.4
2018-Jul-16 08:01N 46°26' W 124°13'5 9.5
2018-Jul-16 07:30N 46°21' W 124°10'5 9.9
2018-Jul-16 07:00N 46°17' W 124°07'4 8.4
2018-Jul-16 06:31N 46°15' W 124°01'510.3
2018-Jul-16 06:01N 46°12' W 123°56'510.6
2018-Jul-16 05:31N 46°12' W 123°48'2 3.5
2018-Jul-16 05:00N 46°12' W 123°46'0 0.0
2018-Jul-16 04:31N 46°12' W 123°46'0 0.0
2018-Jul-16 04:01N 46°12' W 123°46'0 0.0
2018-Jul-16 03:31N 46°12' W 123°46'0 0.0
2018-Jul-16 03:00N 46°12' W 123°46'0 0.0
2018-Jul-16 02:30N 46°12' W 123°46'0 0.0
2018-Jul-16 02:01N 46°12' W 123°46'0 0.0
2018-Jul-16 01:30N 46°12' W 123°46'0 0.0
2018-Jul-16 01:00N 46°12' W 123°46'0 0.0
2018-Jul-16 00:30N 46°12' W 123°46'0 0.0
2018-Jul-16 00:00N 46°12' W 123°46'0 0.0
2018-Jul-15 23:30N 46°12' W 123°46'0 0.0
2018-Jul-15 23:00N 46°12' W 123°46'0 0.0
2018-Jul-15 22:30N 46°12' W 123°46'0 0.0
2018-Jul-15 22:00N 46°12' W 123°46'0 0.0
2018-Jul-15 21:31N 46°12' W 123°46'0 0.0
2018-Jul-15 21:00N 46°12' W 123°46'0 0.0
2018-Jul-15 20:31N 46°12' W 123°46'0 0.0
2018-Jul-15 20:00N 46°12' W 123°46'0 0.0
2018-Jul-15 19:30N 46°12' W 123°46'0 0.0
2018-Jul-15 19:01N 46°12' W 123°46'0 0.0
2018-Jul-15 18:30N 46°12' W 123°46'0 0.0
2018-Jul-15 18:00N 46°12' W 123°46'2 3.9
2018-Jul-15 17:31N 46°12' W 123°48'3 6.3
2018-Jul-15 17:00N 46°11' W 123°53'3 5.9
2018-Jul-15 16:30N 46°12' W 123°57'3 5.7
2018-Jul-15 16:00N 46°14' W 123°60'2 5.0
2018-Jul-15 15:30N 46°15' W 124°03'2 4.4
2018-Jul-15 15:00N 46°15' W 124°06'1 2.5
2018-Jul-15 14:30N 46°16' W 124°08'2 4.2
2018-Jul-15 14:01N 46°17' W 124°11'0 0.9
2018-Jul-15 13:29N 46°17' W 124°11'1 1.2
2018-Jul-15 13:00N 46°18' W 124°12'1 1.3
2018-Jul-15 12:30N 46°18' W 124°11'1 2.6
2018-Jul-15 12:01N 46°19' W 124°09'1 1.1
2018-Jul-15 11:30N 46°19' W 124°10'1 1.1
2018-Jul-15 11:01N 46°19' W 124°10'1 1.3
2018-Jul-15 10:30N 46°19' W 124°11'1 1.7
2018-Jul-15 10:00N 46°20' W 124°12'2 4.3
2018-Jul-15 09:30N 46°22' W 124°13'2 4.5
2018-Jul-15 09:01N 46°24' W 124°14'2 4.7
2018-Jul-15 08:30N 46°26' W 124°16'2 4.6
2018-Jul-15 08:01N 46°29' W 124°16'2 4.9
2018-Jul-15 07:31N 46°31' W 124°17'3 4.9
2018-Jul-15 06:59N 46°33' W 124°18'2 4.5
2018-Jul-15 06:31N 46°35' W 124°20'2 4.5
2018-Jul-15 06:00N 46°37' W 124°21'2 4.6
2018-Jul-15 05:30N 46°40' W 124°22'2 4.7
2018-Jul-15 05:00N 46°42' W 124°22'2 4.8
2018-Jul-15 04:30N 46°44' W 124°23'2 4.9
2018-Jul-15 04:01N 46°46' W 124°25'3 5.0
2018-Jul-15 03:31N 46°49' W 124°26'3 5.0
2018-Jul-15 03:00N 46°51' W 124°27'2 4.7
2018-Jul-15 02:31N 46°53' W 124°29'3 5.0
2018-Jul-15 02:00N 46°56' W 124°30'2 4.9
2018-Jul-15 01:30N 46°58' W 124°31'2 4.8
2018-Jul-15 01:00N 47°00' W 124°33'2 4.8
2018-Jul-15 00:29N 47°02' W 124°34'2 4.7
2018-Jul-15 00:00N 47°05' W 124°35'4 4.8
2018-Jul-14 23:13N 47°08' W 124°37'1 4.8
2018-Jul-14 23:01N 47°09' W 124°38'2 4.9
2018-Jul-14 22:30N 47°11' W 124°39'2 4.8
2018-Jul-14 22:00N 47°13' W 124°40'3 5.2
2018-Jul-14 21:31N 47°16' W 124°42'2 4.9
2018-Jul-14 21:01N 47°18' W 124°43'1 2.6
2018-Jul-14 20:30N 47°19' W 124°45'1 2.8
2018-Jul-14 19:59N 47°17' W 124°44'1 2.0
2018-Jul-14 19:30N 47°16' W 124°45'4 7.8
2018-Jul-14 19:00N 47°20' W 124°46'2 4.1
2018-Jul-14 18:29N 47°22' W 124°46'1 2.0
2018-Jul-14 18:01N 47°23' W 124°47'1 2.8
2018-Jul-14 17:30N 47°24' W 124°47'1 2.7
2018-Jul-14 17:00N 47°25' W 124°49'2 2.9
2018-Jul-14 16:29N 47°27' W 124°50'1 3.0
2018-Jul-14 16:00N 47°28' W 124°51'2 3.5
2018-Jul-14 15:28N 47°29' W 124°53'1 2.3
2018-Jul-14 14:57N 47°28' W 124°52'3 3.2
2018-Jul-14 13:57N 47°26' W 124°49'2 3.3
2018-Jul-14 13:27N 47°24' W 124°48'1 1.0
2018-Jul-14 12:48N 47°24' W 124°48'5 1.9
2018-Jul-14 10:24N 47°19' W 124°50'11 5.6
2018-Jul-14 08:25N 47°08' W 124°49'3 5.8
2018-Jul-14 07:52N 47°05' W 124°49'2 5.8
2018-Jul-14 07:31N 47°03' W 124°49'3 6.6
2018-Jul-14 06:59N 46°59' W 124°49'3 7.0
2018-Jul-14 06:30N 46°56' W 124°48'3 6.9
2018-Jul-14 06:01N 46°53' W 124°48'3 6.7
2018-Jul-14 05:30N 46°49' W 124°48'3 6.6
2018-Jul-14 05:00N 46°46' W 124°48'510.4
2018-Jul-14 04:30N 46°41' W 124°46'2 3.2
2018-Jul-14 04:00N 46°39' W 124°45'5 8.3
2018-Jul-14 03:27N 46°37' W 124°39'4 8.8
2018-Jul-14 03:00N 46°35' W 124°34'4 8.4
2018-Jul-14 02:30N 46°32' W 124°30'4 8.7
2018-Jul-14 02:01N 46°29' W 124°26'4 8.8
2018-Jul-14 01:31N 46°26' W 124°21'5 9.2
2018-Jul-14 01:00N 46°23' W 124°16'4 8.9
2018-Jul-14 00:30N 46°19' W 124°12'6 8.6
2018-Jul-13 23:49N 46°15' W 124°06'310.9
2018-Jul-13 23:30N 46°15' W 124°02'510.8
2018-Jul-13 23:01N 46°12' W 123°56'5 9.6
2018-Jul-13 22:31N 46°12' W 123°49'2 4.2
2018-Jul-13 22:00N 46°12' W 123°46'0 0.0
2018-Jul-13 21:30N 46°12' W 123°46'0 0.0
2018-Jul-13 21:00N 46°12' W 123°46'0 0.0
2018-Jul-13 20:16N 46°12' W 123°46'0 0.0
2018-Jul-13 20:00N 46°12' W 123°46'0 0.0
2018-Jul-13 19:31N 46°12' W 123°46'0 0.0
2018-Jul-13 19:00N 46°12' W 123°46'0 0.0
2018-Jul-13 18:31N 46°12' W 123°46'0 0.0
2018-Jul-13 18:00N 46°12' W 123°46'0 0.0
2018-Jul-13 17:30N 46°12' W 123°46'0 0.0
2018-Jul-13 17:00N 46°12' W 123°46'0 0.0
2018-Jul-13 16:30N 46°12' W 123°46'0 0.5
2018-Jul-13 16:00N 46°12' W 123°45'3 5.7
2018-Jul-13 15:31N 46°12' W 123°49'3 6.1
2018-Jul-13 15:01N 46°12' W 123°54'5 5.4
2018-Jul-13 14:00N 46°15' W 124°00'2 4.0
2018-Jul-13 13:30N 46°15' W 124°03'2 4.4
2018-Jul-13 13:00N 46°15' W 124°06'3 5.6
2018-Jul-13 12:30N 46°17' W 124°08'4 8.4
2018-Jul-13 12:00N 46°21' W 124°10'4 8.7
2018-Jul-13 11:31N 46°25' W 124°13'5 9.0
2018-Jul-13 11:00N 46°29' W 124°16'4 8.9
2018-Jul-13 10:30N 46°33' W 124°18'4 8.8
2018-Jul-13 10:00N 46°37' W 124°21'4 8.8
2018-Jul-13 09:30N 46°41' W 124°23'4 8.6
2018-Jul-13 09:00N 46°45' W 124°26'4 8.5
2018-Jul-13 08:30N 46°49' W 124°29'4 8.5
2018-Jul-13 08:01N 46°53' W 124°31'4 8.7
2018-Jul-13 07:30N 46°57' W 124°33'5 8.7
2018-Jul-13 06:59N 47°01' W 124°36'4 8.5
2018-Jul-13 06:30N 47°05' W 124°38'4 8.6
2018-Jul-13 06:00N 47°09' W 124°40'4 8.9
2018-Jul-13 05:30N 47°13' W 124°43'4 8.9
2018-Jul-13 05:00N 47°17' W 124°45'4 8.5
2018-Jul-13 04:30N 47°21' W 124°47'4 8.2
2018-Jul-13 04:00N 47°26' W 124°48'28 8.9
2018-Jul-13 00:49N 47°52' W 125°01'3 9.2
2018-Jul-13 00:30N 47°55' W 125°02'16 4.3
2018-Jul-12 20:47N 48°10' W 125°12'1 0.5
2018-Jul-12 18:13N 48°10' W 125°14'1 3.3
2018-Jul-12 17:52N 48°09' W 125°15'31 4.2
2018-Jul-12 10:26N 47°40' W 125°01'14 8.7
2018-Jul-12 08:50N 47°27' W 124°53'3 8.9
2018-Jul-12 08:30N 47°24' W 124°51'5 8.9
2018-Jul-12 07:58N 47°20' W 124°48'4 8.8
2018-Jul-12 07:30N 47°16' W 124°46'5 8.7
2018-Jul-12 06:59N 47°12' W 124°43'4 8.7
2018-Jul-12 06:31N 47°08' W 124°41'4 8.6
2018-Jul-12 06:01N 47°04' W 124°38'4 8.4
2018-Jul-12 05:30N 47°00' W 124°36'4 8.3
2018-Jul-12 05:00N 46°57' W 124°33'5 8.5
2018-Jul-12 04:24N 46°52' W 124°30'3 8.3
2018-Jul-12 04:00N 46°49' W 124°28'4 8.3
2018-Jul-12 03:30N 46°45' W 124°26'6 8.1
2018-Jul-12 02:48N 46°40' W 124°23'2 8.0
2018-Jul-12 02:31N 46°38' W 124°21'4 8.2
2018-Jul-12 02:01N 46°34' W 124°19'4 8.1
2018-Jul-12 01:30N 46°30' W 124°16'4 7.9
2018-Jul-12 01:01N 46°27' W 124°14'4 8.2
2018-Jul-12 00:31N 46°23' W 124°12'4 8.3
2018-Jul-12 00:01N 46°19' W 124°09'4 8.1
2018-Jul-11 23:31N 46°15' W 124°07'510.9
2018-Jul-11 23:01N 46°14' W 123°59'510.7
2018-Jul-11 22:31N 46°12' W 123°53'2 3.2
2018-Jul-11 22:00N 46°12' W 123°50'0 0.0
2018-Jul-11 21:30N 46°12' W 123°50'3 6.9
2018-Jul-11 21:00N 46°12' W 123°45'0 0.7
2018-Jul-11 20:30N 46°12' W 123°46'0 0.0
2018-Jul-11 20:00N 46°12' W 123°46'0 0.0
2018-Jul-11 19:31N 46°12' W 123°46'0 0.0
2018-Jul-11 19:00N 46°12' W 123°46'0 0.0
2018-Jul-11 18:31N 46°12' W 123°46'0 0.0
2018-Jul-11 18:01N 46°12' W 123°46'0 0.0
2018-Jul-11 17:30N 46°12' W 123°46'0 0.0
2018-Jul-11 17:00N 46°12' W 123°46'0 0.0
2018-Jul-11 16:31N 46°12' W 123°46'1 1.8
2018-Jul-11 16:01N 46°13' W 123°46'4 8.4
2018-Jul-11 15:31N 46°12' W 123°51'4 7.4
2018-Jul-11 15:01N 46°12' W 123°57'4 7.8
2018-Jul-11 14:30N 46°15' W 124°01'3 6.8
2018-Jul-11 14:01N 46°14' W 124°06'3 6.2
2018-Jul-11 13:31N 46°12' W 124°07'3 6.8
2018-Jul-11 13:00N 46°08' W 124°08'3 5.5
2018-Jul-11 12:30N 46°05' W 124°09'3 5.8
2018-Jul-11 12:01N 46°03' W 124°09'3 5.9
2018-Jul-11 11:31N 45°60' W 124°10'3 5.8
2018-Jul-11 11:01N 45°57' W 124°10'4 5.8
2018-Jul-11 10:19N 45°53' W 124°11'2 6.0
2018-Jul-11 10:00N 45°51' W 124°11'3 6.0
2018-Jul-11 09:31N 45°48' W 124°12'3 6.1
2018-Jul-11 09:00N 45°45' W 124°12'3 6.4
2018-Jul-11 08:30N 45°42' W 124°13'3 6.0
2018-Jul-11 08:01N 45°39' W 124°13'3 5.9
2018-Jul-11 07:30N 45°36' W 124°14'3 6.1
2018-Jul-11 06:59N 45°33' W 124°14'3 6.1
2018-Jul-11 06:31N 45°30' W 124°15'3 6.0
2018-Jul-11 06:00N 45°27' W 124°15'3 6.9
2018-Jul-11 05:30N 45°23' W 124°16'4 6.9
2018-Jul-11 05:00N 45°20' W 124°17'  
Track history (hours):
 
Tides and Currents Weather Stations Pressure Air Temp Water Temp Dewpoint Dewpoint Depression Visibility Wind Speed Wind Dir Waves Ship Positions

Raven

Owner: RAVEN ENTERPRISES, NEWPORT, OR. More information available from US FCC via Universal Licensing System and Coast Guard Vessel Documentation Center.

Last reported at 2018-Jul-21 04:40 UTC. Time now 2018-Jul-21 19:27 UTC.
Position N 47°02' W 124°37'.

MMSI: 367773988.

Date/timePositionNaut miles runAvg speedWind from/ knotsBaromVisibWave heightAir tempDewpointWater temp
2018-Jul-21 04:40N 47°02' W 124°37'2 8.0
2018-Jul-21 04:27N 47°01' W 124°36'4 8.4
2018-Jul-21 04:00N 46°57' W 124°34'4 8.1
2018-Jul-21 03:30N 46°54' W 124°32'4 8.4
2018-Jul-21 03:00N 46°50' W 124°29'4 8.4
2018-Jul-21 02:30N 46°46' W 124°27'4 8.4
2018-Jul-21 02:01N 46°42' W 124°24'6 8.7
2018-Jul-21 01:21N 46°37' W 124°21'3 7.6
2018-Jul-21 01:01N 46°35' W 124°19'6 8.2
2018-Jul-21 00:13N 46°29' W 124°15'2 8.5
2018-Jul-21 00:01N 46°27' W 124°14'4 8.6
2018-Jul-20 23:29N 46°23' W 124°11'4 8.7
2018-Jul-20 23:01N 46°19' W 124°09'4 8.6
2018-Jul-20 22:30N 46°15' W 124°06'5 9.2
2018-Jul-20 22:01N 46°14' W 123°59'8 9.9
2018-Jul-20 21:14N 46°12' W 123°49'310.9
2018-Jul-20 21:00N 46°13' W 123°45'1 1.8
2018-Jul-20 20:30N 46°12' W 123°46'0 0.0
2018-Jul-20 20:00N 46°12' W 123°46'0 0.0
2018-Jul-20 19:17N 46°12' W 123°46'0 0.0
2018-Jul-20 19:01N 46°12' W 123°46'0 0.0
2018-Jul-20 18:30N 46°12' W 123°46'0 0.0
2018-Jul-20 18:00N 46°12' W 123°46'0 0.0
2018-Jul-20 17:31N 46°12' W 123°46'0 0.0
2018-Jul-20 17:00N 46°12' W 123°46'0 0.0
2018-Jul-20 16:22N 46°12' W 123°46'0 0.0
2018-Jul-20 16:00N 46°12' W 123°46'0 0.0
2018-Jul-20 15:31N 46°12' W 123°46'2 3.7
2018-Jul-20 14:55N 46°12' W 123°49'6 9.0
2018-Jul-20 14:17N 46°13' W 123°57'310.0
2018-Jul-20 14:00N 46°15' W 123°60'5 9.6
2018-Jul-20 13:30N 46°16' W 124°06'5 9.7
2018-Jul-20 13:00N 46°20' W 124°10'5 9.6
2018-Jul-20 12:30N 46°25' W 124°12'5 9.8
2018-Jul-20 12:00N 46°29' W 124°15'5 9.7
2018-Jul-20 11:30N 46°33' W 124°18'5 9.6
2018-Jul-20 11:01N 46°38' W 124°21'5 9.7
2018-Jul-20 10:30N 46°42' W 124°23'5 9.6
2018-Jul-20 10:00N 46°47' W 124°26'5 9.6
2018-Jul-20 09:31N 46°51' W 124°29'5 9.7
2018-Jul-20 08:58N 46°56' W 124°32'5 9.5
2018-Jul-20 08:29N 47°00' W 124°35'5 9.6
2018-Jul-20 07:55N 47°05' W 124°38'410.0
2018-Jul-20 07:29N 47°09' W 124°40'5 0.2
2018-Jul-19 10:23N 47°14' W 124°42'4 7.1
2018-Jul-19 09:52N 47°11' W 124°40'3 7.3
2018-Jul-19 09:29N 47°08' W 124°38'4 7.2
2018-Jul-19 08:57N 47°04' W 124°36'3 7.3
2018-Jul-19 08:30N 47°01' W 124°35'4 7.2
2018-Jul-19 07:59N 46°58' W 124°33'3 7.2
2018-Jul-19 07:30N 46°55' W 124°31'4 7.4
2018-Jul-19 06:59N 46°51' W 124°28'4 7.9
2018-Jul-19 06:31N 46°48' W 124°26'4 7.9
2018-Jul-19 06:00N 46°44' W 124°24'4 8.0
2018-Jul-19 05:30N 46°40' W 124°22'4 7.4
2018-Jul-19 05:00N 46°37' W 124°20'4 7.8
2018-Jul-19 04:29N 46°33' W 124°17'4 7.6
2018-Jul-19 04:01N 46°30' W 124°15'4 8.3
2018-Jul-19 03:31N 46°26' W 124°13'4 8.2
2018-Jul-19 03:00N 46°22' W 124°10'4 7.9
2018-Jul-19 02:30N 46°19' W 124°08'4 7.7
2018-Jul-19 02:00N 46°15' W 124°05'4 8.3
2018-Jul-19 01:30N 46°14' W 123°59'4 7.9
2018-Jul-19 01:00N 46°12' W 123°55'4 7.8
2018-Jul-19 00:30N 46°12' W 123°50'3 5.7
2018-Jul-19 00:00N 46°12' W 123°45'0 0.4
2018-Jul-18 23:30N 46°12' W 123°46'0 0.0
2018-Jul-18 23:01N 46°12' W 123°46'0 0.0
2018-Jul-18 22:20N 46°12' W 123°46'0 0.0
2018-Jul-18 22:01N 46°12' W 123°46'0 0.0
2018-Jul-18 21:31N 46°12' W 123°46'0 0.0
2018-Jul-18 21:00N 46°12' W 123°46'0 0.0
2018-Jul-18 20:31N 46°12' W 123°46'0 0.0
2018-Jul-18 20:01N 46°12' W 123°46'0 0.0
2018-Jul-18 19:30N 46°12' W 123°46'0 0.0
2018-Jul-18 19:00N 46°12' W 123°46'0 0.0
2018-Jul-18 18:21N 46°12' W 123°46'0 0.0
2018-Jul-18 18:01N 46°12' W 123°46'0 0.0
2018-Jul-18 17:30N 46°12' W 123°46'0 0.0
2018-Jul-18 17:00N 46°12' W 123°46'0 0.0
2018-Jul-18 16:31N 46°12' W 123°46'0 0.0
2018-Jul-18 16:00N 46°12' W 123°46'0 0.0
2018-Jul-18 15:27N 46°12' W 123°46'0 0.0
2018-Jul-18 15:00N 46°12' W 123°46'0 0.0
2018-Jul-18 14:31N 46°12' W 123°46'0 0.0
2018-Jul-18 13:31N 46°12' W 123°46'0 0.0
2018-Jul-18 13:00N 46°12' W 123°46'0 0.0
2018-Jul-18 12:16N 46°12' W 123°46'0 0.0
2018-Jul-18 12:00N 46°12' W 123°46'0 0.0
2018-Jul-18 11:30N 46°12' W 123°46'0 0.0
2018-Jul-18 10:31N 46°12' W 123°46'0 0.0
2018-Jul-18 10:01N 46°12' W 123°46'0 0.0
2018-Jul-18 09:30N 46°12' W 123°46'0 0.0
2018-Jul-18 09:00N 46°12' W 123°46'0 0.0
2018-Jul-18 08:31N 46°12' W 123°46'0 0.0
2018-Jul-18 08:01N 46°12' W 123°46'0 0.0
2018-Jul-18 07:30N 46°12' W 123°46'0 0.0
2018-Jul-18 06:59N 46°12' W 123°46'0 0.0
2018-Jul-18 06:30N 46°12' W 123°46'0 0.0
2018-Jul-18 06:00N 46°12' W 123°46'0 0.0
2018-Jul-18 05:31N 46°12' W 123°46'0 0.0
2018-Jul-18 04:48N 46°12' W 123°46'0 0.0
2018-Jul-18 04:30N 46°12' W 123°46'0 0.0
2018-Jul-18 03:54N 46°12' W 123°46'0 0.0
2018-Jul-18 03:30N 46°12' W 123°46'0 0.0
2018-Jul-18 03:00N 46°12' W 123°46'0 0.0
2018-Jul-18 02:30N 46°12' W 123°46'0 0.0
2018-Jul-18 02:01N 46°12' W 123°46'0 0.0
2018-Jul-18 01:30N 46°12' W 123°46'0 0.0
2018-Jul-18 00:40N 46°12' W 123°46'0 0.0
2018-Jul-18 00:30N 46°12' W 123°46'0 0.0
2018-Jul-18 00:00N 46°12' W 123°46'0 0.0
2018-Jul-17 23:30N 46°12' W 123°46'0 0.0
2018-Jul-17 23:00N 46°12' W 123°46'0 0.0
2018-Jul-17 22:30N 46°12' W 123°46'0 0.0
2018-Jul-17 22:00N 46°12' W 123°46'0 0.0
2018-Jul-17 21:30N 46°12' W 123°46'0 0.0
2018-Jul-17 21:01N 46°12' W 123°46'0 0.1
2018-Jul-17 20:30N 46°12' W 123°45'3 5.3
2018-Jul-17 20:01N 46°12' W 123°49'1 1.4
2018-Jul-17 19:30N 46°12' W 123°50'0 0.0
2018-Jul-17 19:01N 46°12' W 123°50'3 5.3
2018-Jul-17 18:30N 46°12' W 123°54'3 5.4
2018-Jul-17 18:00N 46°13' W 123°57'2 3.9
2018-Jul-17 17:31N 46°14' W 123°59'2 4.4
2018-Jul-17 17:00N 46°16' W 124°02'3 3.6
2018-Jul-17 16:16N 46°15' W 124°06'1 3.1
2018-Jul-17 16:01N 46°16' W 124°07'2 4.3
2018-Jul-17 15:31N 46°18' W 124°08'2 4.6
2018-Jul-17 15:01N 46°20' W 124°09'2 4.4
2018-Jul-17 14:30N 46°22' W 124°11'2 4.4
2018-Jul-17 14:01N 46°24' W 124°12'2 4.2
2018-Jul-17 13:31N 46°26' W 124°14'2 4.5
2018-Jul-17 13:00N 46°28' W 124°15'2 5.0
2018-Jul-17 12:30N 46°30' W 124°17'3 5.2
2018-Jul-17 11:50N 46°33' W 124°19'2 5.1
2018-Jul-17 11:24N 46°35' W 124°20'2 5.2
2018-Jul-17 11:00N 46°37' W 124°21'4 5.4
2018-Jul-17 10:16N 46°41' W 124°24'1 5.1
2018-Jul-17 10:01N 46°42' W 124°25'3 5.1
2018-Jul-17 09:31N 46°44' W 124°26'2 4.9
2018-Jul-17 09:00N 46°46' W 124°28'2 4.8
2018-Jul-17 08:31N 46°48' W 124°29'2 5.0
2018-Jul-17 08:01N 46°51' W 124°31'2 4.8
2018-Jul-17 07:30N 46°53' W 124°32'2 4.8
2018-Jul-17 07:00N 46°55' W 124°34'2 4.8
2018-Jul-17 06:30N 46°57' W 124°35'2 4.6
2018-Jul-17 06:00N 46°59' W 124°37'2 4.4
2018-Jul-17 05:27N 47°02' W 124°38'2 4.6
2018-Jul-17 05:00N 47°03' W 124°40'2 4.8
2018-Jul-17 04:30N 47°05' W 124°41'3 5.1
2018-Jul-17 03:59N 47°08' W 124°43'3 5.0
2018-Jul-17 03:20N 47°11' W 124°45'22 4.0
2018-Jul-16 21:53N 47°31' W 124°58'2 1.7
2018-Jul-16 20:30N 47°29' W 124°57'3 0.9
2018-Jul-16 17:13N 47°28' W 124°52'1 3.5
2018-Jul-16 16:56N 47°28' W 124°51'2 4.0
2018-Jul-16 16:31N 47°26' W 124°50'3 5.7
2018-Jul-16 16:01N 47°28' W 124°53'1 1.4
2018-Jul-16 15:30N 47°28' W 124°52'4 8.5
2018-Jul-16 15:00N 47°24' W 124°49'4 7.6
2018-Jul-16 14:31N 47°21' W 124°47'5 8.8
2018-Jul-16 13:54N 47°16' W 124°44'5 9.4
2018-Jul-16 13:25N 47°12' W 124°41'4 9.4
2018-Jul-16 13:00N 47°08' W 124°39'5 9.3
2018-Jul-16 12:30N 47°04' W 124°37'5 9.3
2018-Jul-16 12:00N 46°60' W 124°34'5 9.3
2018-Jul-16 11:30N 46°55' W 124°31'5 9.1
2018-Jul-16 11:00N 46°51' W 124°28'5 9.2
2018-Jul-16 10:31N 46°47' W 124°26'5 9.3
2018-Jul-16 10:01N 46°43' W 124°23'5 9.1
2018-Jul-16 09:30N 46°38' W 124°21'5 9.1
2018-Jul-16 09:01N 46°34' W 124°18'5 9.3
2018-Jul-16 08:30N 46°30' W 124°15'5 9.4
2018-Jul-16 08:01N 46°26' W 124°13'5 9.5
2018-Jul-16 07:30N 46°21' W 124°10'5 9.9
2018-Jul-16 07:00N 46°17' W 124°07'4 8.4
2018-Jul-16 06:31N 46°15' W 124°01'510.3
2018-Jul-16 06:01N 46°12' W 123°56'510.6
2018-Jul-16 05:31N 46°12' W 123°48'2 3.5
2018-Jul-16 05:00N 46°12' W 123°46'0 0.0
2018-Jul-16 04:31N 46°12' W 123°46'0 0.0
2018-Jul-16 04:01N 46°12' W 123°46'0 0.0
2018-Jul-16 03:31N 46°12' W 123°46'0 0.0
2018-Jul-16 03:00N 46°12' W 123°46'0 0.0
2018-Jul-16 02:30N 46°12' W 123°46'0 0.0
2018-Jul-16 02:01N 46°12' W 123°46'0 0.0
2018-Jul-16 01:30N 46°12' W 123°46'0 0.0
2018-Jul-16 01:00N 46°12' W 123°46'0 0.0
2018-Jul-16 00:30N 46°12' W 123°46'0 0.0
2018-Jul-16 00:00N 46°12' W 123°46'0 0.0
2018-Jul-15 23:30N 46°12' W 123°46'0 0.0
2018-Jul-15 23:00N 46°12' W 123°46'0 0.0
2018-Jul-15 22:30N 46°12' W 123°46'0 0.0
2018-Jul-15 22:00N 46°12' W 123°46'0 0.0
2018-Jul-15 21:31N 46°12' W 123°46'0 0.0
2018-Jul-15 21:00N 46°12' W 123°46'0 0.0
2018-Jul-15 20:31N 46°12' W 123°46'0 0.0
2018-Jul-15 20:00N 46°12' W 123°46'0 0.0
2018-Jul-15 19:30N 46°12' W 123°46'0 0.0
2018-Jul-15 19:01N 46°12' W 123°46'0 0.0
2018-Jul-15 18:30N 46°12' W 123°46'0 0.0
2018-Jul-15 18:00N 46°12' W 123°46'2 3.9
2018-Jul-15 17:31N 46°12' W 123°48'3 6.3
2018-Jul-15 17:00N 46°11' W 123°53'3 5.9
2018-Jul-15 16:30N 46°12' W 123°57'3 5.7
2018-Jul-15 16:00N 46°14' W 123°60'2 5.0
2018-Jul-15 15:30N 46°15' W 124°03'2 4.4
2018-Jul-15 15:00N 46°15' W 124°06'1 2.5
2018-Jul-15 14:30N 46°16' W 124°08'2 4.2
2018-Jul-15 14:01N 46°17' W 124°11'0 0.9
2018-Jul-15 13:29N 46°17' W 124°11'1 1.2
2018-Jul-15 13:00N 46°18' W 124°12'1 1.3
2018-Jul-15 12:30N 46°18' W 124°11'1 2.6
2018-Jul-15 12:01N 46°19' W 124°09'1 1.1
2018-Jul-15 11:30N 46°19' W 124°10'1 1.1
2018-Jul-15 11:01N 46°19' W 124°10'1 1.3
2018-Jul-15 10:30N 46°19' W 124°11'1 1.7
2018-Jul-15 10:00N 46°20' W 124°12'2 4.3
2018-Jul-15 09:30N 46°22' W 124°13'2 4.5
2018-Jul-15 09:01N 46°24' W 124°14'2 4.7
2018-Jul-15 08:30N 46°26' W 124°16'2 4.6
2018-Jul-15 08:01N 46°29' W 124°16'2 4.9
2018-Jul-15 07:31N 46°31' W 124°17'3 4.9
2018-Jul-15 06:59N 46°33' W 124°18'2 4.5
2018-Jul-15 06:31N 46°35' W 124°20'2 4.5
2018-Jul-15 06:00N 46°37' W 124°21'2 4.6
2018-Jul-15 05:30N 46°40' W 124°22'2 4.7
2018-Jul-15 05:00N 46°42' W 124°22'2 4.8
2018-Jul-15 04:30N 46°44' W 124°23'2 4.9
2018-Jul-15 04:01N 46°46' W 124°25'3 5.0
2018-Jul-15 03:31N 46°49' W 124°26'3 5.0
2018-Jul-15 03:00N 46°51' W 124°27'2 4.7
2018-Jul-15 02:31N 46°53' W 124°29'3 5.0
2018-Jul-15 02:00N 46°56' W 124°30'2 4.9
2018-Jul-15 01:30N 46°58' W 124°31'2 4.8
2018-Jul-15 01:00N 47°00' W 124°33'2 4.8
2018-Jul-15 00:29N 47°02' W 124°34'2 4.7
2018-Jul-15 00:00N 47°05' W 124°35'4 4.8
2018-Jul-14 23:13N 47°08' W 124°37'1 4.8
2018-Jul-14 23:01N 47°09' W 124°38'2 4.9
2018-Jul-14 22:30N 47°11' W 124°39'2 4.8
2018-Jul-14 22:00N 47°13' W 124°40'3 5.2
2018-Jul-14 21:31N 47°16' W 124°42'2 4.9
2018-Jul-14 21:01N 47°18' W 124°43'1 2.6
2018-Jul-14 20:30N 47°19' W 124°45'1 2.8
2018-Jul-14 19:59N 47°17' W 124°44'1 2.0
2018-Jul-14 19:30N 47°16' W 124°45'4 7.8
2018-Jul-14 19:00N 47°20' W 124°46'2 4.1
2018-Jul-14 18:29N 47°22' W 124°46'1 2.0
2018-Jul-14 18:01N 47°23' W 124°47'1 2.8
2018-Jul-14 17:30N 47°24' W 124°47'1 2.7
2018-Jul-14 17:00N 47°25' W 124°49'2 2.9
2018-Jul-14 16:29N 47°27' W 124°50'1 3.0
2018-Jul-14 16:00N 47°28' W 124°51'2 3.5
2018-Jul-14 15:28N 47°29' W 124°53'1 2.3
2018-Jul-14 14:57N 47°28' W 124°52'3 3.2
2018-Jul-14 13:57N 47°26' W 124°49'2 3.3
2018-Jul-14 13:27N 47°24' W 124°48'1 1.0
2018-Jul-14 12:48N 47°24' W 124°48'5 1.9
2018-Jul-14 10:24N 47°19' W 124°50'11 5.6
2018-Jul-14 08:25N 47°08' W 124°49'3 5.8
2018-Jul-14 07:52N 47°05' W 124°49'2 5.8
2018-Jul-14 07:31N 47°03' W 124°49'3 6.6
2018-Jul-14 06:59N 46°59' W 124°49'3 7.0
2018-Jul-14 06:30N 46°56' W 124°48'3 6.9
2018-Jul-14 06:01N 46°53' W 124°48'3 6.7
2018-Jul-14 05:30N 46°49' W 124°48'3 6.6
2018-Jul-14 05:00N 46°46' W 124°48'510.4
2018-Jul-14 04:30N 46°41' W 124°46'2 3.2
2018-Jul-14 04:00N 46°39' W 124°45'5 8.3
2018-Jul-14 03:27N 46°37' W 124°39'4 8.8
2018-Jul-14 03:00N 46°35' W 124°34'4 8.4
2018-Jul-14 02:30N 46°32' W 124°30'4 8.7
2018-Jul-14 02:01N 46°29' W 124°26'4 8.8
2018-Jul-14 01:31N 46°26' W 124°21'5 9.2
2018-Jul-14 01:00N 46°23' W 124°16'4 8.9
2018-Jul-14 00:30N 46°19' W 124°12'6 8.6
2018-Jul-13 23:49N 46°15' W 124°06'310.9
2018-Jul-13 23:30N 46°15' W 124°02'510.8
2018-Jul-13 23:01N 46°12' W 123°56'5 9.6
2018-Jul-13 22:31N 46°12' W 123°49'2 4.2
2018-Jul-13 22:00N 46°12' W 123°46'0 0.0
2018-Jul-13 21:30N 46°12' W 123°46'0 0.0
2018-Jul-13 21:00N 46°12' W 123°46'0 0.0
2018-Jul-13 20:16N 46°12' W 123°46'0 0.0
2018-Jul-13 20:00N 46°12' W 123°46'0 0.0
2018-Jul-13 19:31N 46°12' W 123°46'0 0.0
2018-Jul-13 19:00N 46°12' W 123°46'0 0.0
2018-Jul-13 18:31N 46°12' W 123°46'0 0.0
2018-Jul-13 18:00N 46°12' W 123°46'0 0.0
2018-Jul-13 17:30N 46°12' W 123°46'0 0.0
2018-Jul-13 17:00N 46°12' W 123°46'0 0.0
2018-Jul-13 16:30N 46°12' W 123°46'0 0.5
2018-Jul-13 16:00N 46°12' W 123°45'3 5.7
2018-Jul-13 15:31N 46°12' W 123°49'3 6.1
2018-Jul-13 15:01N 46°12' W 123°54'5 5.4
2018-Jul-13 14:00N 46°15' W 124°00'2 4.0
2018-Jul-13 13:30N 46°15' W 124°03'2 4.4
2018-Jul-13 13:00N 46°15' W 124°06'3 5.6
2018-Jul-13 12:30N 46°17' W 124°08'4 8.4
2018-Jul-13 12:00N 46°21' W 124°10'4 8.7
2018-Jul-13 11:31N 46°25' W 124°13'5 9.0
2018-Jul-13 11:00N 46°29' W 124°16'4 8.9
2018-Jul-13 10:30N 46°33' W 124°18'4 8.8
2018-Jul-13 10:00N 46°37' W 124°21'4 8.8
2018-Jul-13 09:30N 46°41' W 124°23'4 8.6
2018-Jul-13 09:00N 46°45' W 124°26'4 8.5
2018-Jul-13 08:30N 46°49' W 124°29'4 8.5
2018-Jul-13 08:01N 46°53' W 124°31'4 8.7
2018-Jul-13 07:30N 46°57' W 124°33'5 8.7
2018-Jul-13 06:59N 47°01' W 124°36'4 8.5
2018-Jul-13 06:30N 47°05' W 124°38'4 8.6
2018-Jul-13 06:00N 47°09' W 124°40'4 8.9
2018-Jul-13 05:30N 47°13' W 124°43'4 8.9
2018-Jul-13 05:00N 47°17' W 124°45'4 8.5
2018-Jul-13 04:30N 47°21' W 124°47'4 8.2
2018-Jul-13 04:00N 47°26' W 124°48'28 8.9
2018-Jul-13 00:49N 47°52' W 125°01'3 9.2
2018-Jul-13 00:30N 47°55' W 125°02'16 4.3
2018-Jul-12 20:47N 48°10' W 125°12'1 0.5
2018-Jul-12 18:13N 48°10' W 125°14'1 3.3
2018-Jul-12 17:52N 48°09' W 125°15'31 4.2
2018-Jul-12 10:26N 47°40' W 125°01'14 8.7
2018-Jul-12 08:50N 47°27' W 124°53'3 8.9
2018-Jul-12 08:30N 47°24' W 124°51'5 8.9
2018-Jul-12 07:58N 47°20' W 124°48'4 8.8
2018-Jul-12 07:30N 47°16' W 124°46'5 8.7
2018-Jul-12 06:59N 47°12' W 124°43'4 8.7
2018-Jul-12 06:31N 47°08' W 124°41'4 8.6
2018-Jul-12 06:01N 47°04' W 124°38'4 8.4
2018-Jul-12 05:30N 47°00' W 124°36'4 8.3
2018-Jul-12 05:00N 46°57' W 124°33'5 8.5
2018-Jul-12 04:24N 46°52' W 124°30'3 8.3
2018-Jul-12 04:00N 46°49' W 124°28'4 8.3
2018-Jul-12 03:30N 46°45' W 124°26'6 8.1
2018-Jul-12 02:48N 46°40' W 124°23'2 8.0
2018-Jul-12 02:31N 46°38' W 124°21'4 8.2
2018-Jul-12 02:01N 46°34' W 124°19'4 8.1
2018-Jul-12 01:30N 46°30' W 124°16'4 7.9
2018-Jul-12 01:01N 46°27' W 124°14'4 8.2
2018-Jul-12 00:31N 46°23' W 124°12'4 8.3
2018-Jul-12 00:01N 46°19' W 124°09'4 8.1
2018-Jul-11 23:31N 46°15' W 124°07'510.9
2018-Jul-11 23:01N 46°14' W 123°59'510.7
2018-Jul-11 22:31N 46°12' W 123°53'2 3.2
2018-Jul-11 22:00N 46°12' W 123°50'0 0.0
2018-Jul-11 21:30N 46°12' W 123°50'3 6.9
2018-Jul-11 21:00N 46°12' W 123°45'0 0.7
2018-Jul-11 20:30N 46°12' W 123°46'0 0.0
2018-Jul-11 20:00N 46°12' W 123°46'0 0.0
2018-Jul-11 19:31N 46°12' W 123°46'0 0.0
2018-Jul-11 19:00N 46°12' W 123°46'0 0.0
2018-Jul-11 18:31N 46°12' W 123°46'0 0.0
2018-Jul-11 18:01N 46°12' W 123°46'0 0.0
2018-Jul-11 17:30N 46°12' W 123°46'0 0.0
2018-Jul-11 17:00N 46°12' W 123°46'0 0.0
2018-Jul-11 16:31N 46°12' W 123°46'1 1.8
2018-Jul-11 16:01N 46°13' W 123°46'4 8.4
2018-Jul-11 15:31N 46°12' W 123°51'4 7.4
2018-Jul-11 15:01N 46°12' W 123°57'4 7.8
2018-Jul-11 14:30N 46°15' W 124°01'3 6.8
2018-Jul-11 14:01N 46°14' W 124°06'3 6.2
2018-Jul-11 13:31N 46°12' W 124°07'3 6.8
2018-Jul-11 13:00N 46°08' W 124°08'3 5.5
2018-Jul-11 12:30N 46°05' W 124°09'3 5.8
2018-Jul-11 12:01N 46°03' W 124°09'3 5.9
2018-Jul-11 11:31N 45°60' W 124°10'3 5.8
2018-Jul-11 11:01N 45°57' W 124°10'4 5.8
2018-Jul-11 10:19N 45°53' W 124°11'2 6.0
2018-Jul-11 10:00N 45°51' W 124°11'3 6.0
2018-Jul-11 09:31N 45°48' W 124°12'3 6.1
2018-Jul-11 09:00N 45°45' W 124°12'3 6.4
2018-Jul-11 08:30N 45°42' W 124°13'3 6.0
2018-Jul-11 08:01N 45°39' W 124°13'3 5.9
2018-Jul-11 07:30N 45°36' W 124°14'3 6.1
2018-Jul-11 06:59N 45°33' W 124°14'3 6.1
2018-Jul-11 06:31N 45°30' W 124°15'3 6.0
2018-Jul-11 06:00N 45°27' W 124°15'3 6.9
2018-Jul-11 05:30N 45°23' W 124°16'4 6.9
2018-Jul-11 05:00N 45°20' W 124°17'  

Dump ship's entire track history